San Diego, California
Traffic Map
Current Weather Conditions
San Diego, California
Broken Clouds
Broken Clouds
63°
Feels Like: 63°
Wind Chill: 63° Ceiling: 3000
Heat Index: 63° Visibility: 10mi
Dew Point: 51° Wind: 5mph
Humidity: 65% Direction: ° ()
Pressure: 30.1in Gusts: 0mph
Raw Report DataKSAN 261851Z VRB04KT 10SM SCT019 BKN030 17/11 A3010 RMK AO2 SLP192 T01720106
Traffic Incident Summary
Active as of:
Severity:
Category:
InformationThere was an issue retrieving the traffic information for this location. Please try a different location or try again shortly.
Advertisements
Track Severe Weather on mobile